createdAt,value
2022-10-30T00:00:02.090Z,11
2022-10-30T00:05:01.469Z,15
2022-10-30T00:10:01.871Z,14
2022-10-30T00:15:02.215Z,14
2022-10-30T00:20:01.762Z,13
2022-10-30T00:25:02.232Z,11
2022-10-30T00:30:01.718Z,14
2022-10-30T00:35:02.073Z,16
2022-10-30T00:40:01.590Z,13
2022-10-30T00:45:02.000Z,13
2022-10-30T00:50:01.373Z,14
2022-10-30T00:55:01.856Z,12
2022-10-30T01:00:02.833Z,12
2022-10-30T01:05:02.308Z,12
2022-10-30T01:10:01.748Z,12
2022-10-30T01:15:02.144Z,15
2022-10-30T01:25:02.166Z,18
2022-10-30T01:30:01.640Z,18
2022-10-30T01:35:02.124Z,18
2022-10-30T01:40:01.497Z,15
2022-10-30T01:45:01.967Z,16
2022-10-30T01:50:01.430Z,16
2022-10-30T01:55:01.774Z,18
2022-10-30T02:00:02.125Z,13
2022-10-30T02:05:01.619Z,14
2022-10-30T02:10:02.122Z,13
2022-10-30T02:15:01.665Z,20
2022-10-30T02:20:02.100Z,15
2022-10-30T02:25:01.579Z,19
2022-10-30T02:30:02.125Z,17
2022-10-30T02:35:01.650Z,10
2022-10-30T02:40:02.052Z,17
2022-10-30T02:45:01.545Z,12
2022-10-30T02:50:01.904Z,13
2022-10-30T02:55:02.367Z,12
2022-10-30T03:00:01.761Z,17
2022-10-30T03:05:02.110Z,15
2022-10-30T03:10:01.493Z,17
2022-10-30T03:15:01.902Z,16
2022-10-30T03:20:01.476Z,16
2022-10-30T03:25:01.950Z,14
2022-10-30T03:30:02.433Z,15
2022-10-30T03:35:01.797Z,13
2022-10-30T03:40:02.310Z,12
2022-10-30T03:45:01.788Z,14
2022-10-30T03:50:02.301Z,18
2022-10-30T03:55:01.663Z,14
2022-10-30T04:00:02.075Z,17
2022-10-30T04:05:01.410Z,14
2022-10-30T04:10:01.793Z,11
2022-10-30T04:15:02.295Z,14
2022-10-30T04:20:01.843Z,16
2022-10-30T04:25:02.184Z,12
2022-10-30T04:30:01.534Z,14
2022-10-30T04:35:01.902Z,14
2022-10-30T04:40:02.309Z,14
2022-10-30T04:45:04.681Z,15
2022-10-30T04:50:01.610Z,13
2022-10-30T04:55:02.138Z,13
2022-10-30T05:00:01.492Z,11
2022-10-30T05:05:01.969Z,13
2022-10-30T05:10:01.543Z,13
2022-10-30T05:15:02.089Z,15
2022-10-30T05:20:01.540Z,14
2022-10-30T05:25:01.976Z,16
2022-10-30T05:30:01.675Z,12
2022-10-30T05:35:02.153Z,9
2022-10-30T05:40:01.636Z,14
2022-10-30T05:45:02.667Z,11
2022-10-30T05:50:02.307Z,25
2022-10-30T05:55:01.669Z,25
2022-10-30T06:00:02.223Z,12
2022-10-30T06:05:01.591Z,13
2022-10-30T06:10:02.121Z,27
2022-10-30T06:15:01.502Z,14
2022-10-30T06:20:02.044Z,12
2022-10-30T06:25:01.510Z,14
2022-10-30T06:30:02.014Z,12
2022-10-30T06:35:01.487Z,15
2022-10-30T06:40:01.992Z,11
2022-10-30T06:45:01.394Z,10
2022-10-30T06:50:01.880Z,15
2022-10-30T06:55:02.352Z,11
2022-10-30T07:00:01.709Z,15
2022-10-30T07:05:02.143Z,12
2022-10-30T07:10:01.534Z,12
2022-10-30T07:15:02.023Z,12
2022-10-30T07:20:01.459Z,13
2022-10-30T07:25:01.926Z,18
2022-10-30T07:30:02.271Z,16
2022-10-30T07:35:01.756Z,12
2022-10-30T07:40:02.262Z,16
2022-10-30T07:45:01.800Z,18
2022-10-30T07:50:02.286Z,16
2022-10-30T07:55:01.754Z,26
2022-10-30T08:00:04.401Z,17
2022-10-30T08:05:01.482Z,14
2022-10-30T08:10:01.995Z,16
2022-10-30T08:15:01.581Z,13
2022-10-30T08:20:02.028Z,14
2022-10-30T08:25:01.497Z,11
2022-10-30T08:30:01.971Z,12
2022-10-30T08:35:01.479Z,13
2022-10-30T08:40:02.022Z,12
2022-10-30T08:45:01.366Z,12
2022-10-30T08:50:01.832Z,12
2022-10-30T08:55:02.301Z,15
2022-10-30T09:00:01.797Z,14
2022-10-30T09:05:02.347Z,14
2022-10-30T09:10:02.013Z,12
2022-10-30T09:15:01.498Z,15
2022-10-30T09:20:02.142Z,23
2022-10-30T09:25:01.679Z,21
2022-10-30T09:30:02.163Z,30
2022-10-30T09:35:01.641Z,28
2022-10-30T09:40:02.166Z,28
2022-10-30T09:45:27.327Z,24
2022-10-30T09:50:01.986Z,22
2022-10-30T09:55:01.471Z,29
2022-10-30T10:00:01.965Z,26
2022-10-30T10:05:01.443Z,21
2022-10-30T10:10:02.058Z,20
2022-10-30T10:15:01.554Z,20
2022-10-30T10:20:01.985Z,25
2022-10-30T10:25:01.335Z,22
2022-10-30T10:30:01.813Z,18
2022-10-30T10:35:02.332Z,26
2022-10-30T10:40:01.854Z,23
2022-10-30T10:45:02.357Z,19
2022-10-30T10:50:01.842Z,18
2022-10-30T10:55:02.320Z,19
2022-10-30T11:00:01.828Z,21
2022-10-30T11:05:02.307Z,21
2022-10-30T11:10:01.867Z,17
2022-10-30T11:15:02.349Z,16
2022-10-30T11:20:01.742Z,17
2022-10-30T11:25:02.268Z,19
2022-10-30T11:30:01.775Z,18
2022-10-30T11:35:02.289Z,17
2022-10-30T11:40:01.807Z,16
2022-10-30T11:45:02.292Z,16
2022-10-30T11:50:01.655Z,15
2022-10-30T11:55:02.135Z,18
2022-10-30T12:00:05.242Z,13
2022-10-30T12:05:02.120Z,18
2022-10-30T12:10:01.717Z,14
2022-10-30T12:15:02.302Z,13
2022-10-30T12:20:01.847Z,13
2022-10-30T12:25:02.190Z,15
2022-10-30T12:30:09.205Z,14
2022-10-30T12:35:02.288Z,15
2022-10-30T12:40:01.800Z,15
2022-10-30T12:45:02.286Z,14
2022-10-30T12:50:01.903Z,15
2022-10-30T12:55:01.307Z,11
2022-10-30T13:00:01.758Z,15
2022-10-30T13:05:02.223Z,12
2022-10-30T13:10:01.615Z,11
2022-10-30T13:15:01.984Z,12
2022-10-30T13:20:01.542Z,11
2022-10-30T13:25:04.005Z,12
2022-10-30T13:30:02.045Z,14
2022-10-30T13:35:01.535Z,15
2022-10-30T13:40:02.097Z,12
2022-10-30T13:45:01.595Z,11
2022-10-30T13:50:01.932Z,11
2022-10-30T13:55:02.415Z,11
2022-10-30T14:00:01.767Z,10
2022-10-30T14:05:02.234Z,14
2022-10-30T14:10:01.761Z,12
2022-10-30T14:15:02.245Z,10
2022-10-30T14:20:01.722Z,10
2022-10-30T14:25:02.078Z,11
2022-10-30T14:30:01.441Z,10
2022-10-30T14:35:01.906Z,17
2022-10-30T14:40:02.292Z,11
2022-10-30T14:45:01.674Z,10
2022-10-30T14:50:02.142Z,14
2022-10-30T14:55:01.513Z,9
2022-10-30T15:00:02.001Z,9
2022-10-30T15:05:05.428Z,11
2022-10-30T15:10:02.210Z,10
2022-10-30T15:15:01.697Z,9
2022-10-30T15:20:02.250Z,8
2022-10-30T15:25:01.725Z,12
2022-10-30T15:30:02.105Z,10
2022-10-30T15:35:01.627Z,14
2022-10-30T15:40:02.140Z,9
2022-10-30T15:45:01.616Z,10
2022-10-30T15:50:01.956Z,9
2022-10-30T15:55:01.476Z,9
2022-10-30T16:00:02.001Z,10
2022-10-30T16:05:01.589Z,8
2022-10-30T16:10:02.110Z,7
2022-10-30T16:15:01.485Z,9
2022-10-30T16:20:01.898Z,6
2022-10-30T16:25:02.383Z,6
2022-10-30T16:30:01.780Z,8
2022-10-30T16:35:02.272Z,8
2022-10-30T16:40:01.792Z,6
2022-10-30T16:45:02.271Z,8
2022-10-30T16:50:01.749Z,8
2022-10-30T16:55:02.095Z,6
2022-10-30T17:00:01.474Z,14
2022-10-30T17:05:01.852Z,10
2022-10-30T17:10:02.368Z,12
2022-10-30T17:15:01.730Z,8
2022-10-30T17:20:02.373Z,8
2022-10-30T17:25:01.917Z,8
2022-10-30T17:30:02.476Z,8
2022-10-30T17:35:02.029Z,7
2022-10-30T17:40:01.462Z,9
2022-10-30T17:45:01.945Z,8
2022-10-30T17:50:02.304Z,9
2022-10-30T17:55:01.791Z,14
2022-10-30T18:00:02.330Z,8
2022-10-30T18:05:01.866Z,8
2022-10-30T18:10:02.499Z,6
2022-10-30T18:15:02.068Z,7
2022-10-30T18:20:01.685Z,7
2022-10-30T18:25:02.246Z,7
2022-10-30T18:30:01.720Z,6
2022-10-30T18:35:02.203Z,7
2022-10-30T18:40:01.852Z,6
2022-10-30T18:45:02.406Z,7
2022-10-30T18:50:01.888Z,7
2022-10-30T18:55:02.256Z,6
2022-10-30T19:00:01.749Z,8
2022-10-30T19:05:02.149Z,7
2022-10-30T19:10:01.669Z,7
2022-10-30T19:15:02.154Z,7
2022-10-30T19:20:01.710Z,7
2022-10-30T19:25:02.224Z,7
2022-10-30T19:30:01.598Z,11
2022-10-30T19:35:01.939Z,6
2022-10-30T19:40:01.450Z,6
2022-10-30T19:45:01.933Z,7
2022-10-30T19:50:02.395Z,4
2022-10-30T19:55:01.857Z,3
2022-10-30T20:00:02.226Z,5
2022-10-30T20:05:01.704Z,5
2022-10-30T20:10:02.225Z,4
2022-10-30T20:15:01.708Z,4
2022-10-30T20:20:02.260Z,4
2022-10-30T20:25:01.727Z,3
2022-10-30T20:30:02.240Z,4
2022-10-30T20:35:01.979Z,4
2022-10-30T20:40:01.911Z,4
2022-10-30T20:45:02.288Z,4
2022-10-30T20:50:01.621Z,5
2022-10-30T20:55:02.172Z,3
2022-10-30T21:00:01.780Z,3
2022-10-30T21:05:12.099Z,3
2022-10-30T21:10:01.900Z,3
2022-10-30T21:15:02.257Z,3
2022-10-30T21:20:01.831Z,4
2022-10-30T21:25:02.319Z,4
2022-10-30T21:30:01.793Z,5
2022-10-30T21:35:02.286Z,4
2022-10-30T21:40:01.806Z,3
2022-10-30T21:45:02.280Z,3
2022-10-30T21:50:04.830Z,4
2022-10-30T21:55:02.431Z,6
2022-10-30T22:00:05.760Z,9
2022-10-30T22:05:01.728Z,9
2022-10-30T22:10:02.266Z,9
2022-10-30T22:15:01.908Z,10
2022-10-30T22:20:02.003Z,15
2022-10-30T22:25:01.363Z,14
2022-10-30T22:30:01.844Z,14
2022-10-30T22:35:02.331Z,24
2022-10-30T22:40:01.903Z,31
2022-10-30T22:45:02.262Z,48
2022-10-30T22:50:01.738Z,27
2022-10-30T22:55:02.213Z,32
2022-10-30T23:00:01.851Z,19
2022-10-30T23:05:01.904Z,46
2022-10-30T23:10:02.305Z,36
2022-10-30T23:15:01.855Z,28
2022-10-30T23:20:02.744Z,6
2022-10-30T23:25:02.148Z,2
2022-10-30T23:30:01.637Z,3
2022-10-30T23:35:01.983Z,2
2022-10-30T23:40:01.365Z,3
2022-10-30T23:45:01.868Z,2
2022-10-30T23:50:02.233Z,3
2022-10-30T23:55:01.609Z,3
